createdAt,value
2017-12-03T00:00:54.743Z,1.40
2017-12-03T00:03:22.413Z,1.40
2017-12-03T00:05:50.069Z,1.50
2017-12-03T00:08:17.681Z,1.60
2017-12-03T00:10:45.357Z,1.50
2017-12-03T00:13:12.972Z,1.70
2017-12-03T00:15:41.370Z,1.70
2017-12-03T00:18:09.022Z,1.90
2017-12-03T00:20:36.685Z,1.40
2017-12-03T00:23:04.596Z,1.40
2017-12-03T00:25:32.419Z,1.40
2017-12-03T00:28:00.824Z,1.40
2017-12-03T00:30:28.442Z,1.40
2017-12-03T00:32:56.105Z,1.40
2017-12-03T00:35:23.725Z,1.40
2017-12-03T00:37:51.337Z,1.50
2017-12-03T00:40:19.029Z,1.40
2017-12-03T00:42:46.787Z,1.40
2017-12-03T00:45:14.474Z,1.40
2017-12-03T00:47:42.093Z,1.50
2017-12-03T00:50:09.753Z,1.70
2017-12-03T00:52:37.377Z,1.70
2017-12-03T00:55:05.045Z,1.60
2017-12-03T00:57:32.709Z,1.40
2017-12-03T01:00:01.089Z,1.40
2017-12-03T01:02:29.673Z,1.30
2017-12-03T01:04:57.321Z,1.50
2017-12-03T01:07:25.352Z,1.40
2017-12-03T01:09:52.996Z,1.40
2017-12-03T01:12:20.673Z,1.40
2017-12-03T01:14:48.315Z,1.40
2017-12-03T01:17:16.005Z,1.40
2017-12-03T01:19:43.697Z,1.50
2017-12-03T01:22:11.321Z,1.70
2017-12-03T01:24:38.980Z,1.70
2017-12-03T01:27:06.740Z,1.50
2017-12-03T01:29:34.383Z,1.50
2017-12-03T01:32:02.277Z,1.70
2017-12-03T01:34:29.905Z,1.40
2017-12-03T01:36:57.573Z,2.00
2017-12-03T01:39:25.205Z,1.90
2017-12-03T01:41:52.882Z,1.50
2017-12-03T01:44:20.524Z,1.80
2017-12-03T01:46:48.190Z,1.40
2017-12-03T01:49:15.886Z,1.80
2017-12-03T01:51:43.539Z,1.50
2017-12-03T01:54:11.209Z,1.90
2017-12-03T01:56:38.891Z,1.40
2017-12-03T01:59:06.579Z,1.50
2017-12-03T02:01:34.245Z,1.70
2017-12-03T02:04:01.873Z,1.40
2017-12-03T02:06:29.717Z,1.40
2017-12-03T02:08:57.415Z,1.50
2017-12-03T02:11:25.825Z,1.40
2017-12-03T02:13:53.449Z,1.50
2017-12-03T02:16:21.323Z,1.40
2017-12-03T02:18:48.957Z,1.70
2017-12-03T02:21:16.659Z,1.60
2017-12-03T02:23:44.309Z,1.50
2017-12-03T02:26:11.964Z,1.40
2017-12-03T02:28:39.597Z,1.50
2017-12-03T02:31:08.040Z,1.40
2017-12-03T02:33:35.707Z,1.80
2017-12-03T02:36:03.414Z,1.40
2017-12-03T02:38:31.066Z,1.40
2017-12-03T02:40:58.738Z,1.50
2017-12-03T02:43:27.140Z,1.40
2017-12-03T02:45:55.239Z,1.30
2017-12-03T02:48:22.938Z,1.70
2017-12-03T02:50:50.651Z,1.40
2017-12-03T02:53:18.437Z,1.40
2017-12-03T02:55:46.904Z,1.50
2017-12-03T02:58:14.581Z,1.70
2017-12-03T03:00:42.242Z,1.20
2017-12-03T03:03:10.177Z,1.30
2017-12-03T03:05:37.842Z,1.30
2017-12-03T03:08:05.639Z,1.50
2017-12-03T03:10:33.757Z,1.40
2017-12-03T03:13:01.632Z,1.20
2017-12-03T03:15:29.329Z,1.70
2017-12-03T03:17:56.966Z,1.70
2017-12-03T03:20:26.452Z,1.40
2017-12-03T03:22:54.136Z,1.60
2017-12-03T03:25:21.819Z,1.50
2017-12-03T03:27:49.517Z,1.60
2017-12-03T03:30:17.427Z,1.50
2017-12-03T03:32:45.115Z,1.70
2017-12-03T03:35:12.816Z,1.40
2017-12-03T03:37:40.490Z,1.50
2017-12-03T03:40:08.173Z,1.40
2017-12-03T03:42:35.869Z,1.40
2017-12-03T03:45:03.518Z,1.50
2017-12-03T03:47:31.209Z,1.40
2017-12-03T03:49:58.840Z,1.40
2017-12-03T03:52:26.591Z,1.40
2017-12-03T03:54:54.438Z,1.40
2017-12-03T03:57:22.201Z,1.30
2017-12-03T03:59:49.858Z,1.30
2017-12-03T04:02:17.696Z,1.70
2017-12-03T04:04:45.395Z,1.40
2017-12-03T04:07:13.068Z,1.20
2017-12-03T04:09:40.690Z,1.20
2017-12-03T04:12:08.880Z,1.10
2017-12-03T04:14:36.497Z,1.20
2017-12-03T04:17:04.945Z,1.20
2017-12-03T04:19:33.357Z,1.30
2017-12-03T04:22:01.089Z,1.20
2017-12-03T04:24:28.782Z,1.20
2017-12-03T04:26:56.424Z,1.20
2017-12-03T04:29:24.090Z,1.20
2017-12-03T04:31:52.514Z,1.30
2017-12-03T04:34:20.301Z,1.20
2017-12-03T04:36:47.980Z,1.20
2017-12-03T04:39:16.613Z,1.40
2017-12-03T04:41:44.349Z,1.40
2017-12-03T04:44:13.015Z,1.40
2017-12-03T04:46:41.527Z,1.70
2017-12-03T04:49:09.174Z,1.20
2017-12-03T04:51:37.638Z,1.50
2017-12-03T04:54:05.333Z,1.60
2017-12-03T04:56:33.042Z,1.40
2017-12-03T04:59:00.706Z,1.80
2017-12-03T05:01:28.421Z,1.80
2017-12-03T05:03:56.082Z,1.50
2017-12-03T05:06:23.785Z,1.70
2017-12-03T05:08:51.540Z,1.50
2017-12-03T05:11:19.262Z,1.60
2017-12-03T05:13:46.984Z,1.30
2017-12-03T05:16:15.597Z,1.50
2017-12-03T05:18:43.249Z,1.50
2017-12-03T05:21:11.773Z,1.40
2017-12-03T05:23:39.442Z,1.60
2017-12-03T05:26:07.499Z,1.40
2017-12-03T05:28:35.482Z,1.70
2017-12-03T05:31:03.242Z,1.60
2017-12-03T05:33:30.910Z,1.50
2017-12-03T05:35:58.616Z,1.50
2017-12-03T05:38:26.969Z,1.60
2017-12-03T05:40:54.669Z,1.40
2017-12-03T05:43:23.125Z,1.70
2017-12-03T05:45:50.830Z,1.40
2017-12-03T05:48:18.506Z,1.70
2017-12-03T05:50:46.917Z,1.70
2017-12-03T05:53:15.349Z,1.50
2017-12-03T05:55:42.998Z,1.90
2017-12-03T05:58:11.434Z,1.50
2017-12-03T06:00:39.906Z,1.50
2017-12-03T06:03:07.594Z,1.90
2017-12-03T06:05:35.276Z,1.50
2017-12-03T06:08:02.938Z,1.50
2017-12-03T06:10:31.676Z,1.50
2017-12-03T06:12:59.382Z,1.50
2017-12-03T06:15:27.090Z,1.60
2017-12-03T06:17:54.759Z,1.50
2017-12-03T06:20:23.608Z,1.50
2017-12-03T06:22:51.346Z,1.50
2017-12-03T06:25:19.012Z,1.40
2017-12-03T06:27:46.719Z,1.80
2017-12-03T06:30:14.379Z,1.40
2017-12-03T06:32:42.031Z,1.60
2017-12-03T06:35:10.046Z,1.40
2017-12-03T06:37:37.709Z,1.50
2017-12-03T06:40:05.781Z,1.50
2017-12-03T06:42:33.457Z,1.50
2017-12-03T06:45:01.085Z,1.60
2017-12-03T06:47:30.186Z,1.70
2017-12-03T06:49:57.846Z,1.50
2017-12-03T06:52:26.294Z,1.80
2017-12-03T06:54:54.861Z,1.40
2017-12-03T06:57:22.625Z,1.60
2017-12-03T06:59:50.341Z,1.50
2017-12-03T07:02:18.009Z,1.50
2017-12-03T07:04:45.874Z,1.50
2017-12-03T07:07:13.677Z,1.50
2017-12-03T07:09:41.328Z,1.50
2017-12-03T07:12:09.001Z,1.60
2017-12-03T07:14:36.689Z,1.40
2017-12-03T07:17:06.043Z,1.60
2017-12-03T07:19:33.772Z,1.70
2017-12-03T07:22:01.489Z,1.80
2017-12-03T07:24:29.150Z,1.50
2017-12-03T07:26:57.018Z,1.60
2017-12-03T07:29:25.080Z,1.70
2017-12-03T07:31:52.944Z,1.80
2017-12-03T07:34:20.647Z,1.70
2017-12-03T07:36:50.560Z,1.70
2017-12-03T07:39:20.098Z,1.70
2017-12-03T07:41:47.853Z,1.50
2017-12-03T07:44:15.574Z,1.60
2017-12-03T07:46:43.337Z,2.00
2017-12-03T07:49:11.261Z,1.70
2017-12-03T07:51:38.991Z,1.70
2017-12-03T07:54:07.688Z,1.70
2017-12-03T07:56:35.388Z,1.80
2017-12-03T07:59:03.069Z,1.90
2017-12-03T08:01:30.769Z,1.70
2017-12-03T08:03:58.410Z,1.70
2017-12-03T08:06:26.870Z,2.00
2017-12-03T08:08:55.325Z,1.70
2017-12-03T08:11:23.034Z,1.50
2017-12-03T08:13:50.751Z,1.80
2017-12-03T08:16:18.493Z,1.70
2017-12-03T08:18:46.205Z,1.80
2017-12-03T08:21:14.713Z,2.10
2017-12-03T08:23:42.405Z,1.90
2017-12-03T08:26:10.091Z,1.80
2017-12-03T08:28:38.074Z,1.80
2017-12-03T08:31:05.969Z,1.80
2017-12-03T08:33:33.758Z,1.90
2017-12-03T08:36:01.460Z,1.70
2017-12-03T08:38:30.347Z,1.80
2017-12-03T08:40:58.009Z,2.00
2017-12-03T08:43:25.731Z,1.80
2017-12-03T08:45:53.442Z,1.80
2017-12-03T08:48:21.871Z,1.80
2017-12-03T08:50:49.592Z,2.20
2017-12-03T08:53:17.310Z,1.80
2017-12-03T08:55:44.990Z,2.10
2017-12-03T08:58:12.694Z,2.20
2017-12-03T09:00:40.357Z,1.70
2017-12-03T09:03:08.068Z,2.00
2017-12-03T09:05:35.713Z,1.80
2017-12-03T09:08:03.448Z,2.40
2017-12-03T09:10:31.231Z,2.00
2017-12-03T09:12:58.977Z,2.00
2017-12-03T09:15:26.677Z,2.00
2017-12-03T09:17:54.573Z,2.00
2017-12-03T09:20:29.254Z,2.00
2017-12-03T09:22:59.482Z,2.30
2017-12-03T09:25:27.205Z,2.30
2017-12-03T09:27:54.961Z,2.30
2017-12-03T09:30:22.669Z,2.30
2017-12-03T09:32:50.460Z,2.40
2017-12-03T09:35:19.105Z,2.40
2017-12-03T09:37:46.957Z,2.40
2017-12-03T09:40:14.622Z,2.50
2017-12-03T09:42:42.464Z,2.30
2017-12-03T09:45:10.182Z,2.70
2017-12-03T09:47:37.869Z,2.10
2017-12-03T09:50:05.578Z,2.20
2017-12-03T09:52:33.291Z,2.60
2017-12-03T09:55:00.978Z,2.60
2017-12-03T09:57:28.672Z,2.60
2017-12-03T09:59:56.381Z,2.70
2017-12-03T10:02:24.092Z,2.80
2017-12-03T10:04:51.806Z,2.50
2017-12-03T10:07:19.723Z,2.40
2017-12-03T10:09:47.481Z,2.80
2017-12-03T10:12:17.669Z,3.00
2017-12-03T10:14:45.608Z,2.30
2017-12-03T10:17:13.330Z,2.90
2017-12-03T10:19:40.996Z,2.70
2017-12-03T10:22:08.663Z,2.70
2017-12-03T10:24:38.045Z,3.00
2017-12-03T10:27:06.436Z,3.00
2017-12-03T10:29:34.145Z,2.90
2017-12-03T10:32:02.493Z,3.20
2017-12-03T10:34:31.151Z,3.00
2017-12-03T10:36:58.842Z,3.30
2017-12-03T10:39:26.561Z,3.00
2017-12-03T10:41:54.216Z,3.10
2017-12-03T10:44:21.893Z,3.40
2017-12-03T10:46:49.598Z,3.20
2017-12-03T10:49:17.749Z,3.20
2017-12-03T10:51:45.827Z,3.20
2017-12-03T10:54:13.481Z,3.20
2017-12-03T10:56:41.205Z,3.20
2017-12-03T10:59:08.913Z,3.20
2017-12-03T11:01:37.529Z,3.10
2017-12-03T11:04:05.190Z,3.30
2017-12-03T11:06:32.857Z,3.10
2017-12-03T11:09:00.922Z,3.50
2017-12-03T11:11:28.542Z,3.50
2017-12-03T11:13:57.141Z,3.50
2017-12-03T11:16:24.997Z,3.40
2017-12-03T11:18:54.283Z,3.60
2017-12-03T11:21:22.042Z,3.50
2017-12-03T11:23:49.873Z,3.70
2017-12-03T11:26:17.550Z,3.50
2017-12-03T11:28:45.170Z,3.60
2017-12-03T11:31:12.854Z,3.60
2017-12-03T11:33:40.534Z,3.60
2017-12-03T11:36:08.149Z,3.60
2017-12-03T11:38:35.781Z,3.60
2017-12-03T11:41:04.438Z,3.80
2017-12-03T11:43:32.204Z,3.60
2017-12-03T11:45:59.816Z,3.80
2017-12-03T11:48:27.478Z,3.70
2017-12-03T11:50:55.202Z,3.80
2017-12-03T11:53:25.265Z,3.70
2017-12-03T11:55:52.874Z,3.60
2017-12-03T11:58:20.497Z,4.00
2017-12-03T12:00:48.161Z,3.90
2017-12-03T12:03:15.825Z,3.90
2017-12-03T12:05:43.442Z,3.90
2017-12-03T12:08:11.069Z,4.10
2017-12-03T12:10:38.724Z,4.20
2017-12-03T12:13:07.960Z,4.30
2017-12-03T12:15:35.604Z,4.10
2017-12-03T12:18:03.990Z,4.20
2017-12-03T12:20:31.689Z,4.50
2017-12-03T12:22:59.300Z,4.40
2017-12-03T12:25:26.986Z,4.20
2017-12-03T12:27:54.620Z,4.20
2017-12-03T12:30:22.450Z,4.20
2017-12-03T12:32:50.061Z,4.30
2017-12-03T12:35:18.037Z,4.10
2017-12-03T12:37:45.692Z,4.40
2017-12-03T12:40:13.733Z,4.20
2017-12-03T12:42:42.178Z,4.30
2017-12-03T12:45:09.863Z,4.30
2017-12-03T12:47:37.541Z,4.40
2017-12-03T12:50:05.246Z,4.40
2017-12-03T12:52:33.072Z,4.50
2017-12-03T12:55:01.005Z,4.70
2017-12-03T12:57:28.721Z,4.70
2017-12-03T12:59:56.434Z,4.70
2017-12-03T13:02:24.165Z,4.70
2017-12-03T13:04:52.054Z,4.70
2017-12-03T13:07:19.909Z,4.60
2017-12-03T13:09:47.521Z,4.50
2017-12-03T13:12:15.189Z,4.70
2017-12-03T13:14:43.108Z,4.90
2017-12-03T13:17:10.773Z,4.90
2017-12-03T13:19:38.438Z,4.40
2017-12-03T13:22:06.817Z,4.70
2017-12-03T13:24:35.245Z,4.90
2017-12-03T13:27:02.889Z,4.80
2017-12-03T13:29:31.314Z,4.80
2017-12-03T13:31:58.985Z,5.10
2017-12-03T13:34:26.602Z,4.90
2017-12-03T13:36:54.265Z,5.00
2017-12-03T13:39:21.872Z,4.70
2017-12-03T13:41:49.529Z,4.90
2017-12-03T13:44:17.478Z,4.80
2017-12-03T13:46:45.158Z,4.80
2017-12-03T13:49:14.950Z,5.00
2017-12-03T13:51:42.612Z,4.90
2017-12-03T13:54:10.225Z,5.30
2017-12-03T13:56:38.553Z,5.40
2017-12-03T13:59:06.227Z,5.00
2017-12-03T14:01:34.634Z,5.10
2017-12-03T14:04:03.089Z,5.30
2017-12-03T14:06:31.043Z,5.30
2017-12-03T14:08:58.702Z,5.40
2017-12-03T14:11:26.581Z,5.40
2017-12-03T14:13:54.442Z,5.10
2017-12-03T14:16:22.197Z,5.20
2017-12-03T14:18:49.857Z,5.30
2017-12-03T14:21:18.162Z,5.40
2017-12-03T14:23:46.833Z,5.40
2017-12-03T14:26:14.474Z,5.40
2017-12-03T14:28:42.298Z,5.10
2017-12-03T14:31:09.973Z,5.30
2017-12-03T14:33:37.584Z,5.10
2017-12-03T14:36:05.967Z,5.30
2017-12-03T14:38:34.421Z,5.60
2017-12-03T14:41:02.053Z,5.30
2017-12-03T14:43:29.667Z,5.20
2017-12-03T14:45:57.350Z,5.60
2017-12-03T14:48:25.004Z,5.20
2017-12-03T14:50:52.665Z,5.60
2017-12-03T14:53:20.277Z,5.40
2017-12-03T14:55:47.939Z,5.80
2017-12-03T14:58:15.589Z,5.70
2017-12-03T15:00:43.215Z,5.70
2017-12-03T15:03:10.882Z,5.60
2017-12-03T15:05:38.585Z,5.60
2017-12-03T15:08:06.256Z,5.70
2017-12-03T15:10:33.882Z,5.60
2017-12-03T15:13:02.826Z,5.70
2017-12-03T15:15:30.486Z,5.50
2017-12-03T15:17:59.012Z,5.70
2017-12-03T15:20:26.894Z,5.60
2017-12-03T15:22:54.598Z,5.50
2017-12-03T15:25:22.509Z,5.10
2017-12-03T15:27:50.171Z,5.50
2017-12-03T15:30:17.830Z,5.60
2017-12-03T15:32:45.781Z,5.50
2017-12-03T15:35:13.446Z,5.60
2017-12-03T15:37:41.124Z,5.80
2017-12-03T15:40:08.842Z,5.70
2017-12-03T15:42:36.905Z,5.60
2017-12-03T15:45:04.577Z,5.80
2017-12-03T15:47:32.246Z,5.70
2017-12-03T15:49:59.958Z,5.70
2017-12-03T15:52:28.207Z,5.60
2017-12-03T15:54:56.193Z,5.80
2017-12-03T15:57:23.862Z,5.80
2017-12-03T15:59:51.594Z,5.80
2017-12-03T16:02:19.330Z,5.70
2017-12-03T16:04:47.029Z,5.70
2017-12-03T16:07:14.749Z,5.60
2017-12-03T16:09:42.553Z,6.00
2017-12-03T16:12:10.250Z,5.60
2017-12-03T16:14:37.925Z,5.40
2017-12-03T16:17:05.562Z,5.70
2017-12-03T16:19:33.261Z,5.60
2017-12-03T16:22:00.929Z,5.50
2017-12-03T16:24:28.576Z,5.60
2017-12-03T16:26:56.272Z,5.80
2017-12-03T16:29:23.930Z,5.90
2017-12-03T16:31:51.637Z,5.70
2017-12-03T16:34:19.469Z,5.60
2017-12-03T16:36:47.240Z,6.00
2017-12-03T16:39:14.904Z,5.80
2017-12-03T16:41:42.557Z,6.00
2017-12-03T16:44:10.230Z,5.80
2017-12-03T16:46:38.551Z,5.90
2017-12-03T16:49:06.357Z,5.70
2017-12-03T16:51:34.010Z,5.90
2017-12-03T16:54:01.701Z,6.00
2017-12-03T16:56:29.369Z,5.90
2017-12-03T16:58:57.802Z,5.80
2017-12-03T17:01:25.516Z,5.90
2017-12-03T17:03:53.954Z,5.80
2017-12-03T17:06:21.589Z,5.90
2017-12-03T17:08:49.266Z,6.10
2017-12-03T17:11:16.881Z,5.70
2017-12-03T17:13:44.551Z,5.90
2017-12-03T17:16:12.245Z,5.50
2017-12-03T17:18:40.126Z,5.80
2017-12-03T17:21:07.755Z,6.00
2017-12-03T17:23:35.489Z,5.90
2017-12-03T17:26:03.225Z,5.50
2017-12-03T17:28:31.343Z,5.80
2017-12-03T17:31:00.889Z,6.00
2017-12-03T17:33:28.554Z,5.90
2017-12-03T17:35:58.033Z,5.30
2017-12-03T17:38:25.693Z,5.70
2017-12-03T17:40:53.354Z,5.60
2017-12-03T17:43:20.981Z,5.40
2017-12-03T17:45:48.650Z,5.40
2017-12-03T17:48:17.154Z,5.40
2017-12-03T17:50:44.814Z,5.40
2017-12-03T17:53:12.436Z,5.40
2017-12-03T17:55:40.097Z,5.30
2017-12-03T17:58:07.753Z,5.40
2017-12-03T18:00:36.133Z,5.50
2017-12-03T18:03:03.821Z,5.60
2017-12-03T18:05:31.429Z,5.40
2017-12-03T18:07:59.110Z,5.70
2017-12-03T18:10:26.727Z,5.70
2017-12-03T18:12:54.386Z,5.60
2017-12-03T18:15:22.041Z,5.40
2017-12-03T18:17:49.712Z,5.40
2017-12-03T18:20:17.638Z,5.30
2017-12-03T18:22:45.320Z,5.10
2017-12-03T18:25:12.958Z,5.40
2017-12-03T18:27:40.589Z,5.10
2017-12-03T18:30:08.265Z,5.30
2017-12-03T18:32:35.947Z,5.00
2017-12-03T18:35:03.594Z,5.00
2017-12-03T18:37:31.488Z,5.10
2017-12-03T18:39:59.271Z,5.20
2017-12-03T18:42:26.997Z,5.30
2017-12-03T18:44:54.645Z,5.10
2017-12-03T18:47:22.346Z,5.30
2017-12-03T18:49:50.081Z,5.00
2017-12-03T18:52:17.760Z,5.00
2017-12-03T18:54:45.469Z,5.00
2017-12-03T18:57:14.286Z,5.00
2017-12-03T18:59:41.949Z,5.20
2017-12-03T19:02:09.673Z,5.30
2017-12-03T19:04:38.124Z,5.10
2017-12-03T19:07:05.798Z,4.90
2017-12-03T19:09:33.549Z,5.30
2017-12-03T19:12:01.192Z,5.00
2017-12-03T19:14:28.851Z,5.00
2017-12-03T19:16:56.529Z,5.10
2017-12-03T19:19:24.286Z,5.30
2017-12-03T19:21:52.027Z,5.00
2017-12-03T19:24:19.903Z,5.00
2017-12-03T19:26:47.668Z,5.40
2017-12-03T19:29:16.765Z,5.10
2017-12-03T19:31:44.482Z,5.10
2017-12-03T19:34:12.214Z,5.20
2017-12-03T19:36:39.876Z,5.30
2017-12-03T19:39:07.569Z,5.00
2017-12-03T19:41:35.421Z,5.20
2017-12-03T19:44:05.291Z,5.10
2017-12-03T19:46:34.688Z,5.50
2017-12-03T19:49:02.385Z,5.30
2017-12-03T19:51:30.853Z,5.10
2017-12-03T19:53:59.265Z,5.00
2017-12-03T19:56:26.995Z,5.20
2017-12-03T20:01:19.024Z,5.30
2017-12-03T20:03:46.638Z,5.50
2017-12-03T20:06:14.518Z,5.30
2017-12-03T20:08:42.310Z,5.00
2017-12-03T20:11:09.954Z,5.60
2017-12-03T20:13:37.638Z,5.60
2017-12-03T20:16:05.282Z,5.20
2017-12-03T20:18:32.983Z,5.30
2017-12-03T20:21:01.442Z,5.50
2017-12-03T20:23:29.146Z,5.30
2017-12-03T20:25:56.835Z,5.20
2017-12-03T20:28:24.556Z,5.60
2017-12-03T20:30:53.068Z,5.10
2017-12-03T20:33:20.701Z,5.30
2017-12-03T20:35:48.661Z,5.60
2017-12-03T20:38:17.162Z,5.60
2017-12-03T20:40:44.855Z,5.40
2017-12-03T20:43:12.492Z,5.10
2017-12-03T20:45:40.190Z,5.10
2017-12-03T20:48:07.821Z,5.20
2017-12-03T20:50:35.549Z,5.50
2017-12-03T20:53:03.951Z,5.10
2017-12-03T20:55:31.574Z,5.40
2017-12-03T20:57:59.250Z,5.10
2017-12-03T21:00:29.733Z,5.20
2017-12-03T21:02:57.352Z,5.40
2017-12-03T21:05:25.050Z,5.00
2017-12-03T21:07:52.677Z,5.00
2017-12-03T21:10:20.391Z,5.10
2017-12-03T21:12:48.036Z,5.20
2017-12-03T21:15:15.753Z,5.50
2017-12-03T21:17:43.444Z,5.10
2017-12-03T21:20:11.073Z,5.20
2017-12-03T21:22:38.760Z,5.40
2017-12-03T21:25:06.414Z,5.10
2017-12-03T21:27:34.051Z,5.20
2017-12-03T21:30:01.862Z,5.60
2017-12-03T21:32:29.529Z,5.10
2017-12-03T21:34:57.177Z,5.40
2017-12-03T21:37:25.141Z,5.00
2017-12-03T21:39:52.826Z,5.10
2017-12-03T21:42:21.817Z,5.40
2017-12-03T21:44:49.497Z,5.20
2017-12-03T21:47:17.135Z,5.60
2017-12-03T21:49:44.789Z,5.00
2017-12-03T21:52:12.445Z,5.10
2017-12-03T21:54:40.105Z,5.20
2017-12-03T21:57:07.793Z,5.40
2017-12-03T21:59:35.452Z,5.00
2017-12-03T22:02:03.127Z,5.00
2017-12-03T22:04:31.506Z,5.00
2017-12-03T22:06:59.928Z,5.30
2017-12-03T22:09:27.542Z,5.20
2017-12-03T22:11:55.165Z,5.40
2017-12-03T22:14:22.825Z,5.10
2017-12-03T22:16:50.482Z,5.10
2017-12-03T22:19:18.106Z,5.20
2017-12-03T22:21:45.764Z,5.30
2017-12-03T22:24:13.534Z,5.00
2017-12-03T22:26:41.202Z,5.00
2017-12-03T22:29:08.817Z,5.00
2017-12-03T22:31:37.514Z,5.00
2017-12-03T22:34:05.950Z,5.00
2017-12-03T22:36:33.607Z,5.20
2017-12-03T22:39:01.265Z,5.30
2017-12-03T22:41:29.174Z,5.10
2017-12-03T22:43:57.602Z,5.10
2017-12-03T22:46:25.261Z,5.00
2017-12-03T22:48:52.901Z,5.00
2017-12-03T22:51:21.447Z,5.00
2017-12-03T22:53:49.879Z,5.30
2017-12-03T22:56:17.488Z,5.50
2017-12-03T22:58:45.551Z,5.30
2017-12-03T23:01:13.390Z,5.00
2017-12-03T23:03:41.074Z,5.10
2017-12-03T23:06:09.784Z,5.20
2017-12-03T23:08:37.399Z,5.40
2017-12-03T23:11:05.062Z,5.00
2017-12-03T23:13:32.819Z,5.10
2017-12-03T23:16:00.434Z,5.20
2017-12-03T23:18:28.046Z,5.10
2017-12-03T23:20:55.693Z,5.10
2017-12-03T23:23:23.343Z,5.20
2017-12-03T23:25:51.068Z,5.30
2017-12-03T23:28:18.738Z,5.10
2017-12-03T23:30:46.460Z,5.10
2017-12-03T23:33:14.149Z,5.20
2017-12-03T23:35:41.837Z,5.00
2017-12-03T23:38:09.474Z,5.00
2017-12-03T23:40:37.132Z,5.00
2017-12-03T23:43:04.858Z,5.00
2017-12-03T23:45:33.298Z,4.80
2017-12-03T23:50:25.995Z,4.80
2017-12-03T23:52:53.650Z,4.70
2017-12-03T23:55:21.596Z,5.20
2017-12-03T23:57:49.360Z,4.70
